Date,TemperatureHighF,TemperatureAvgF,TemperatureLowF,DewpointHighF,DewpointAvgF,DewpointLowF,HumidityHigh,HumidityAvg,HumidityLow,PressureMaxIn,PressureMinIn,WindSpeedMaxMPH,WindSpeedAvgMPH,GustSpeedMaxMPH,PrecipitationSumIn
2013-3-1,29,18,4,15,10,1,93,73,48,30.47,30.34,3,1,10,0.00
2013-3-2,33,15,-8,13,5,-12,91,67,38,30.45,30.22,2,0,6,0.00
2013-3-3,35,26,15,13,9,4,78,51,30,30.23,30.04,4,1,10,0.00
2013-3-4,27,24,20,22,17,7,94,77,42,30.10,30.00,4,2,11,0.00
2013-3-5,29,24,21,25,22,18,95,89,77,30.41,30.07,5,1,10,0.00
2013-3-6,29,19,5,18,14,1,93,80,59,30.50,30.40,3,1,7,0.01
2013-3-7,35,16,-6,19,9,-9,92,74,48,30.48,30.35,3,1,7,0.03
2013-3-8,39,27,18,27,21,13,88,79,61,30.38,30.13,3,0,7,0.10
2013-3-9,35,32,29,34,31,25,97,95,85,30.13,29.76,0,0,3,0.06
2013-3-10,32,26,21,30,24,19,95,90,84,30.13,29.90,0,0,0,0.00
2013-3-11,30,21,14,22,18,13,94,85,72,30.06,29.84,0,0,0,0.00
2013-3-12,28,20,13,18,13,8,94,74,47,30.30,29.90,7,1,14,0.00
2013-3-13,35,20,2,19,12,0,93,74,46,30.45,30.27,2,0,6,0.02
2013-3-14,44,30,22,31,24,16,94,81,59,30.27,30.06,3,0,7,0.38
2013-3-15,31,26,19,27,22,17,94,83,63,30.07,29.95,4,2,9,0.00
2013-3-16,23,13,2,16,5,-4,90,72,51,30.37,30.05,6,2,13,0.00
2013-3-17,24,8,-15,17,-1,-19,90,67,45,30.38,29.89,4,2,12,0.00
2013-3-18,28,20,9,26,15,4,95,83,67,29.89,29.56,8,4,19,0.00
2013-3-19,23,11,3,5,0,-5,83,63,40,30.29,29.88,7,4,16,0.00
2013-3-20,24,12,2,6,0,-5,74,59,43,30.32,30.20,7,3,18,0.00
2013-3-21,31,11,-10,11,2,-14,88,68,41,30.25,30.14,4,1,9,0.00
2013-3-22,39,17,-4,13,6,-8,92,66,33,30.20,30.13,3,0,5,0.05
2013-3-23,41,27,8,23,15,6,92,64,38,30.23,30.15,3,0,7,0.06
2013-3-24,33,29,25,25,22,19,93,75,65,30.18,30.11,5,1,10,0.01
2013-3-25,36,29,21,20,17,14,77,63,46,30.32,30.17,7,2,12,0.00
2013-3-26,45,29,12,22,16,10,92,63,31,30.37,30.31,4,0,6,0.00
2013-3-27,46,32,16,21,17,13,89,59,32,30.39,30.34,3,0,5,0.00
2013-3-28,48,30,12,23,18,10,94,65,33,30.39,30.31,3,1,7,0.00
2013-3-29,54,40,24,37,30,19,89,70,47,30.33,30.03,3,1,7,0.00
2013-3-30,56,42,33,41,35,29,97,79,45,30.03,29.86,5,1,12,0.12
2013-3-31,34,30,18,31,18,9,93,65,36,30.18,29.79,8,4,20,0.00